Time;durP1;ratioP1;P1;durP2;ratioP2;P2;SDS_P1;SDS_P2;PMS_P1;PMS_P2;Temp;Humidity;BMP_temperature;BMP_pressure;BME280_temperature;BME280_humidity;BME280_pressure;Samples;Min_cycle;Max_cycle;Signal;HPM_P1;HPM_P2
2024/03/10 00:00:14;;;;;;;34.50;21.20;;;;;;;;;;5050660;28;20108;-74
2024/03/10 00:02:40;;;;;;;21.40;12.40;;;;;;;;;;5050474;28;20315;-75
2024/03/10 00:05:06;;;;;;;17.00;9.02;;;;;;;;;;5051993;28;20029;-75
2024/03/10 00:07:32;;;;;;;19.40;12.27;;;;;;;;;;5050660;28;20024;-74
2024/03/10 00:09:58;;;;;;;25.17;15.85;;;;;;;;;;5050403;28;20040;-74
2024/03/10 00:12:24;;;;;;;23.48;15.80;;;;;;;;;;5051915;28;20021;-75
2024/03/10 00:14:50;;;;;;;27.85;19.30;;;;;;;;;;5051935;28;20075;-75
2024/03/10 00:17:16;;;;;;;22.85;13.93;;;;;;;;;;5052163;28;20091;-74
2024/03/10 00:19:42;;;;;;;26.73;19.17;;;;;;;;;;5051816;28;20404;-74
2024/03/10 00:22:09;;;;;;;26.17;15.82;;;;;;;;;;5051959;28;20087;-74
2024/03/10 00:24:37;;;;;;;29.83;19.17;;;;;;;;;;5052043;28;20461;-74
2024/03/10 00:27:03;;;;;;;20.30;12.65;;;;;;;;;;5051855;28;20036;-75
2024/03/10 00:29:29;;;;;;;19.45;11.90;;;;;;;;;;5051662;28;20358;-75
2024/03/10 00:31:55;;;;;;;20.48;12.63;;;;;;;;;;5050410;28;20039;-75
2024/03/10 00:34:22;;;;;;;30.48;19.42;;;;;;;;;;5051939;28;20027;-75
2024/03/10 00:36:48;;;;;;;25.90;15.05;;;;;;;;;;5051506;28;20275;-75
2024/03/10 00:39:14;;;;;;;23.92;13.98;;;;;;;;;;5051917;28;20306;-76
2024/03/10 00:41:43;;;;;;;16.25;9.32;;;;;;;;;;5050525;28;20033;-75
2024/03/10 00:44:09;;;;;;;28.55;19.38;;;;;;;;;;5051876;28;20021;-75
2024/03/10 00:46:35;;;;;;;19.85;10.75;;;;;;;;;;5051922;28;20029;-76
2024/03/10 00:49:01;;;;;;;21.63;13.25;;;;;;;;;;5050316;28;20028;-76
2024/03/10 00:51:27;;;;;;;25.52;17.35;;;;;;;;;;5052311;28;20025;-75
2024/03/10 00:53:54;;;;;;;22.92;15.30;;;;;;;;;;5050249;28;20158;-75
2024/03/10 00:56:20;;;;;;;23.50;13.93;;;;;;;;;;5050721;28;20190;-75
2024/03/10 00:58:46;;;;;;;28.02;17.45;;;;;;;;;;5051087;28;20029;-76
2024/03/10 01:01:12;;;;;;;18.70;11.57;;;;;;;;;;5051351;28;20029;-76
2024/03/10 01:03:42;;;;;;;18.08;9.43;;;;;;;;;;5050516;28;20492;-75
2024/03/10 01:06:08;;;;;;;;;;;;;;;;;;5051902;28;20029;-76
2024/03/10 01:08:34;;;;;;;11.68;7.05;;;;;;;;;;5053977;28;20417;-75
2024/03/10 01:11:00;;;;;;;18.08;11.00;;;;;;;;;;5055115;28;20025;-75
2024/03/10 01:13:27;;;;;;;20.20;12.07;;;;;;;;;;5055813;28;20102;-73
2024/03/10 01:15:54;;;;;;;22.35;13.77;;;;;;;;;;5054246;28;20503;-75
2024/03/10 01:18:22;;;;;;;29.08;19.63;;;;;;;;;;5055577;28;20021;-75
2024/03/10 01:20:48;;;;;;;19.45;13.27;;;;;;;;;;5054944;28;20063;-75
2024/03/10 01:23:14;;;;;;;22.33;13.43;;;;;;;;;;5055072;28;20056;-75
2024/03/10 01:25:41;;;;;;;23.52;15.57;;;;;;;;;;5053697;28;20576;-75
2024/03/10 01:28:07;;;;;;;15.75;8.98;;;;;;;;;;5053381;28;20033;-75
2024/03/10 01:30:34;;;;;;;11.48;7.40;;;;;;;;;;5053672;28;20124;-75
2024/03/10 01:33:00;;;;;;;27.95;18.40;;;;;;;;;;5054746;28;20102;-75
2024/03/10 01:35:26;;;;;;;13.43;8.18;;;;;;;;;;5055150;28;20045;-75
2024/03/10 01:37:52;;;;;;;13.80;8.25;;;;;;;;;;5054325;28;20029;-75
2024/03/10 01:40:19;;;;;;;13.00;7.68;;;;;;;;;;5054762;28;20028;-74
2024/03/10 01:42:45;;;;;;;15.55;9.90;;;;;;;;;;5054539;28;20017;-76
2024/03/10 01:45:11;;;;;;;11.90;6.35;;;;;;;;;;5053319;28;20109;-75
2024/03/10 01:47:37;;;;;;;18.95;10.48;;;;;;;;;;5053381;28;20032;-76
2024/03/10 01:50:06;;;;;;;21.00;13.43;;;;;;;;;;5053073;28;20546;-76
2024/03/10 01:52:32;;;;;;;11.63;6.75;;;;;;;;;;5054689;28;20029;-76
2024/03/10 01:55:00;;;;;;;19.15;12.07;;;;;;;;;;5053182;28;20060;-76
2024/03/10 01:57:26;;;;;;;24.75;13.52;;;;;;;;;;5053252;28;20028;-75
2024/03/10 01:59:53;;;;;;;26.98;16.40;;;;;;;;;;5052958;28;20029;-75
2024/03/10 02:02:19;;;;;;;15.27;6.63;;;;;;;;;;5053090;28;20402;-74
2024/03/10 02:04:45;;;;;;;24.48;15.50;;;;;;;;;;5054413;28;20066;-74
2024/03/10 02:07:11;;;;;;;24.00;16.05;;;;;;;;;;5053019;28;20472;-74
2024/03/10 02:09:38;;;;;;;23.92;14.60;;;;;;;;;;5054286;28;20370;-75
2024/03/10 02:12:05;;;;;;;14.00;6.80;;;;;;;;;;5054022;28;20170;-77
2024/03/10 02:14:31;;;;;;;22.30;14.30;;;;;;;;;;5053922;28;20048;-77
2024/03/10 02:16:57;;;;;;;17.05;9.13;;;;;;;;;;5054059;28;20088;-75
2024/03/10 02:19:25;;;;;;;24.55;14.52;;;;;;;;;;5052427;28;20456;-76
2024/03/10 02:21:51;;;;;;;18.52;10.30;;;;;;;;;;5052300;28;20052;-76
2024/03/10 02:24:19;;;;;;;21.92;13.82;;;;;;;;;;5054047;28;20460;-75
2024/03/10 02:26:46;;;;;;;21.98;13.07;;;;;;;;;;5052808;28;20113;-75
2024/03/10 02:29:18;;;;;;;22.23;13.15;;;;;;;;;;5053846;28;20079;-75
2024/03/10 02:48:13;;;;;;;14.23;7.63;;;;;;;;;;5053561;28;20048;-74
2024/03/10 02:50:39;;;;;;;23.95;11.25;;;;;;;;;;5052988;28;20428;-75
2024/03/10 02:53:05;;;;;;;21.38;12.38;;;;;;;;;;5053129;28;20025;-74
2024/03/10 02:55:34;;;;;;;11.98;6.25;;;;;;;;;;5053569;28;20476;-75
2024/03/10 02:58:05;;;;;;;17.48;6.38;;;;;;;;;;5051977;28;20575;-75
2024/03/10 03:00:35;;;;;;;18.73;11.20;;;;;;;;;;5052171;28;20024;-75
2024/03/10 03:03:03;;;;;;;16.85;8.63;;;;;;;;;;5053209;28;20025;-75
2024/03/10 03:05:29;;;;;;;18.77;11.50;;;;;;;;;;5053680;28;20021;-75
2024/03/10 03:07:55;;;;;;;22.92;15.10;;;;;;;;;;5053368;28;20063;-75
2024/03/10 03:10:21;;;;;;;26.70;18.02;;;;;;;;;;5053546;28;20465;-75
2024/03/10 03:12:48;;;;;;;14.38;7.10;;;;;;;;;;5053054;28;20027;-75
2024/03/10 03:15:15;;;;;;;13.23;7.35;;;;;;;;;;5052267;28;20044;-75
2024/03/10 03:17:41;;;;;;;16.95;9.40;;;;;;;;;;5053682;28;20123;-76
2024/03/10 03:20:15;;;;;;;14.05;8.40;;;;;;;;;;5051462;28;20024;-76
2024/03/10 03:22:42;;;;;;;17.08;8.82;;;;;;;;;;5052897;28;20053;-76
2024/03/10 03:25:09;;;;;;;23.30;16.33;;;;;;;;;;5051248;28;20116;-73
2024/03/10 03:27:35;;;;;;;13.15;8.50;;;;;;;;;;5052842;28;20146;-75
2024/03/10 03:30:03;;;;;;;19.00;10.75;;;;;;;;;;5051144;28;20070;-76
2024/03/10 03:32:29;;;;;;;17.95;8.70;;;;;;;;;;5052020;28;20017;-76
2024/03/10 03:34:55;;;;;;;17.98;9.30;;;;;;;;;;5052519;28;20059;-76
2024/03/10 03:37:21;;;;;;;16.08;9.35;;;;;;;;;;5051249;28;20060;-76
2024/03/10 03:39:47;;;;;;;22.73;13.27;;;;;;;;;;5051230;28;20488;-76
2024/03/10 03:42:15;;;;;;;31.00;20.13;;;;;;;;;;5050945;28;20036;-74
2024/03/10 03:44:41;;;;;;;21.08;13.88;;;;;;;;;;5052570;28;20056;-74
2024/03/10 03:47:08;;;;;;;24.85;14.60;;;;;;;;;;5052265;28;20103;-73
2024/03/10 03:49:34;;;;;;;18.83;12.10;;;;;;;;;;5051133;28;20025;-74
2024/03/10 03:52:00;;;;;;;30.55;18.33;;;;;;;;;;5050951;28;20056;-73
2024/03/10 03:54:26;;;;;;;18.38;10.70;;;;;;;;;;5052383;28;20050;-75
2024/03/10 03:56:53;;;;;;;24.05;13.68;;;;;;;;;;5051905;28;20033;-74
2024/03/10 03:59:19;;;;;;;27.88;17.58;;;;;;;;;;5052578;28;20037;-74
2024/03/10 04:01:45;;;;;;;21.55;12.32;;;;;;;;;;5052276;28;20110;-75
2024/03/10 04:04:14;;;;;;;30.98;21.60;;;;;;;;;;5052083;28;20150;-74
2024/03/10 04:06:40;;;;;;;22.27;13.38;;;;;;;;;;5052251;28;20075;-75
2024/03/10 04:09:07;;;;;;;24.65;16.13;;;;;;;;;;5051917;28;20017;-75
2024/03/10 04:11:33;;;;;;;19.42;11.95;;;;;;;;;;5050824;28;20423;-75
2024/03/10 04:13:59;;;;;;;24.42;14.30;;;;;;;;;;5051943;28;20017;-75
2024/03/10 04:16:26;;;;;;;25.63;15.38;;;;;;;;;;5052375;28;20025;-75
2024/03/10 04:18:52;;;;;;;22.75;14.43;;;;;;;;;;5052112;28;20029;-75
2024/03/10 04:21:18;;;;;;;18.25;9.60;;;;;;;;;;5050507;28;20064;-76
2024/03/10 04:23:44;;;;;;;19.58;11.32;;;;;;;;;;5050399;28;20461;-76
2024/03/10 04:26:10;;;;;;;21.80;14.32;;;;;;;;;;5050788;28;20370;-76
2024/03/10 04:28:36;;;;;;;16.20;10.00;;;;;;;;;;5050595;28;20025;-75
2024/03/10 04:31:02;;;;;;;22.30;13.48;;;;;;;;;;5051846;28;20060;-76
2024/03/10 04:33:28;;;;;;;14.57;8.32;;;;;;;;;;5051740;28;20032;-76
2024/03/10 04:35:55;;;;;;;25.48;17.95;;;;;;;;;;5051788;28;20025;-75
2024/03/10 04:38:21;;;;;;;33.00;22.55;;;;;;;;;;5052413;28;20071;-75
2024/03/10 04:40:47;;;;;;;26.38;17.60;;;;;;;;;;5052949;28;20031;-75
2024/03/10 04:43:13;;;;;;;25.05;16.02;;;;;;;;;;5054867;28;20025;-74
2024/03/10 04:45:40;;;;;;;15.57;8.70;;;;;;;;;;5056081;28;20464;-75
2024/03/10 04:48:08;;;;;;;29.55;18.67;;;;;;;;;;5054169;28;20491;-75
2024/03/10 04:50:34;;;;;;;30.70;18.65;;;;;;;;;;5055840;28;20491;-75
2024/03/10 04:53:00;;;;;;;29.77;18.80;;;;;;;;;;5055434;28;20096;-74
2024/03/10 04:55:26;;;;;;;20.25;13.45;;;;;;;;;;5055398;28;20108;-75
2024/03/10 04:57:54;;;;;;;24.13;14.40;;;;;;;;;;5055692;28;20457;-74
2024/03/10 05:00:21;;;;;;;28.73;18.95;;;;;;;;;;5055657;28;20032;-75
2024/03/10 05:02:48;;;;;;;21.08;10.80;;;;;;;;;;5054047;28;20029;-74
2024/03/10 05:05:15;;;;;;;19.80;12.05;;;;;;;;;;5055468;28;20027;-76
2024/03/10 05:07:42;;;;;;;13.88;6.88;;;;;;;;;;5054478;28;20426;-74
2024/03/10 05:10:08;;;;;;;14.18;6.82;;;;;;;;;;5055720;28;20029;-75
2024/03/10 05:12:35;;;;;;;16.77;8.05;;;;;;;;;;5054431;28;20025;-74
2024/03/10 05:15:03;;;;;;;22.42;12.40;;;;;;;;;;5054639;28;20460;-74
2024/03/10 05:17:29;;;;;;;15.23;7.95;;;;;;;;;;5055811;28;20053;-74
2024/03/10 05:19:55;;;;;;;23.73;14.50;;;;;;;;;;5054011;28;20119;-75
2024/03/10 05:22:21;;;;;;;20.30;9.27;;;;;;;;;;5055506;28;20041;-75
2024/03/10 05:24:48;;;;;;;17.63;8.10;;;;;;;;;;5037543;28;20045;-76
2024/03/10 05:27:16;;;;;;;18.42;11.23;;;;;;;;;;5055106;28;20028;-74
2024/03/10 05:29:43;;;;;;;19.77;11.20;;;;;;;;;;5054985;28;20028;-76
2024/03/10 05:32:09;;;;;;;23.30;11.77;;;;;;;;;;5053505;28;20032;-76
2024/03/10 05:34:39;;;;;;;25.10;14.23;;;;;;;;;;5053664;28;20025;-76
2024/03/10 05:37:05;;;;;;;26.17;13.73;;;;;;;;;;5053137;28;20067;-76
2024/03/10 05:39:32;;;;;;;29.02;18.35;;;;;;;;;;5054745;28;20032;-75
2024/03/10 05:41:59;;;;;;;30.75;20.85;;;;;;;;;;5053370;28;20018;-76
2024/03/10 05:44:25;;;;;;;19.80;11.38;;;;;;;;;;5053574;28;20108;-75
2024/03/10 05:46:51;;;;;;;28.00;17.02;;;;;;;;;;5054792;28;20115;-75
2024/03/10 05:49:17;;;;;;;20.98;12.23;;;;;;;;;;5053056;28;20090;-75
2024/03/10 05:51:45;;;;;;;20.88;10.82;;;;;;;;;;5053250;28;20025;-76
2024/03/10 05:54:13;;;;;;;19.30;11.40;;;;;;;;;;5053439;28;20067;-74
2024/03/10 05:56:39;;;;;;;31.40;18.67;;;;;;;;;;5053195;28;20031;-75
2024/03/10 05:59:05;;;;;;;20.55;12.32;;;;;;;;;;5052942;28;20116;-75
2024/03/10 06:01:31;;;;;;;16.60;9.65;;;;;;;;;;5053105;28;20029;-75
2024/03/10 06:03:57;;;;;;;30.50;19.15;;;;;;;;;;5053134;28;20029;-75
2024/03/10 06:06:23;;;;;;;30.35;20.10;;;;;;;;;;5054063;28;20098;-75
2024/03/10 06:08:49;;;;;;;25.17;15.43;;;;;;;;;;5052951;28;20032;-75
2024/03/10 06:11:18;;;;;;;23.08;14.13;;;;;;;;;;5053993;28;20036;-74
2024/03/10 06:13:44;;;;;;;27.40;14.35;;;;;;;;;;5052868;28;20090;-75
2024/03/10 06:16:10;;;;;;;17.23;10.68;;;;;;;;;;5052555;28;20477;-75
2024/03/10 06:26:50;;;;;;;29.73;18.23;;;;;;;;;;5053915;28;20036;-75
2024/03/10 06:29:17;;;;;;;27.73;14.68;;;;;;;;;;5055303;28;20025;-74
2024/03/10 06:31:43;;;;;;;15.55;9.27;;;;;;;;;;5052983;28;20029;-75
2024/03/10 06:34:10;;;;;;;22.40;12.15;;;;;;;;;;5055144;28;20017;-76
2024/03/10 06:36:36;;;;;;;22.30;14.55;;;;;;;;;;5053588;28;20109;-76
2024/03/10 06:39:04;;;;;;;24.63;16.17;;;;;;;;;;5051912;28;20032;-75
2024/03/10 06:41:30;;;;;;;22.33;13.43;;;;;;;;;;5052304;28;20025;-75
2024/03/10 06:43:59;;;;;;;26.25;12.23;;;;;;;;;;5053511;28;20017;-75
2024/03/10 06:46:25;;;;;;;28.33;18.90;;;;;;;;;;5053157;28;20029;-75
2024/03/10 06:48:52;;;;;;;27.08;15.63;;;;;;;;;;5052036;28;20036;-76
2024/03/10 06:51:19;;;;;;;25.45;15.77;;;;;;;;;;5053216;28;20483;-76
2024/03/10 06:53:45;;;;;;;24.98;15.68;;;;;;;;;;5051959;28;20116;-74
2024/03/10 06:56:11;;;;;;;26.77;17.10;;;;;;;;;;5051737;28;20036;-75
2024/03/10 06:58:37;;;;;;;30.75;18.38;;;;;;;;;;5053265;28;20025;-75
2024/03/10 07:01:05;;;;;;;29.35;17.73;;;;;;;;;;5052978;28;20024;-78
2024/03/10 07:03:32;;;;;;;29.40;16.25;;;;;;;;;;5051993;28;20492;-78
2024/03/10 07:06:01;;;;;;;29.00;18.90;;;;;;;;;;5052016;28;20031;-78
2024/03/10 07:08:27;;;;;;;27.63;16.73;;;;;;;;;;5053936;28;20032;-78
2024/03/10 07:10:53;;;;;;;27.55;15.68;;;;;;;;;;5056318;28;20530;-76
2024/03/10 07:13:20;;;;;;;33.50;17.95;;;;;;;;;;5059379;28;20048;-78
2024/03/10 07:15:46;;;;;;;27.83;14.48;;;;;;;;;;5052880;28;20021;-78
2024/03/10 07:18:13;;;;;;;25.40;15.73;;;;;;;;;;5051328;28;20465;-79
2024/03/10 07:20:39;;;;;;;21.65;13.23;;;;;;;;;;5051549;28;20066;-78
2024/03/10 07:23:05;;;;;;;33.00;17.42;;;;;;;;;;5052756;28;20040;-77
2024/03/10 07:25:33;;;;;;;27.60;17.52;;;;;;;;;;5051335;28;20036;-78
2024/03/10 07:27:59;;;;;;;30.95;19.15;;;;;;;;;;5051649;28;20077;-78
2024/03/10 07:30:25;;;;;;;23.85;14.73;;;;;;;;;;5051837;28;20472;-77
2024/03/10 07:32:51;;;;;;;28.73;19.55;;;;;;;;;;5053193;28;20029;-78
2024/03/10 07:35:17;;;;;;;27.15;17.52;;;;;;;;;;5051759;28;20376;-77
2024/03/10 07:37:43;;;;;;;26.15;17.90;;;;;;;;;;5051640;28;20522;-77
2024/03/10 07:40:19;;;;;;;24.35;13.52;;;;;;;;;;5052410;28;20021;-77
2024/03/10 07:42:45;;;;;;;23.35;15.13;;;;;;;;;;5051067;28;20027;-78
2024/03/10 07:45:11;;;;;;;22.92;14.52;;;;;;;;;;5052096;28;20032;-79
2024/03/10 07:47:39;;;;;;;28.77;18.08;;;;;;;;;;5050933;28;20029;-79
2024/03/10 07:50:06;;;;;;;23.85;12.82;;;;;;;;;;5051061;28;20373;-78
2024/03/10 07:52:32;;;;;;;25.60;17.20;;;;;;;;;;5051183;28;20028;-78
2024/03/10 07:54:58;;;;;;;22.00;13.63;;;;;;;;;;5050938;28;20028;-78
2024/03/10 07:57:24;;;;;;;26.90;18.10;;;;;;;;;;5052303;28;20025;-77
2024/03/10 07:59:52;;;;;;;27.85;19.70;;;;;;;;;;5050992;28;20028;-79
2024/03/10 08:02:18;;;;;;;27.60;19.10;;;;;;;;;;5050808;28;20457;-77
2024/03/10 08:04:44;;;;;;;28.35;19.02;;;;;;;;;;5052601;28;20052;-78
2024/03/10 08:07:11;;;;;;;26.90;17.55;;;;;;;;;;5050444;28;20135;-77
2024/03/10 08:09:37;;;;;;;26.92;17.17;;;;;;;;;;5050837;28;20493;-78
2024/03/10 08:12:04;;;;;;;26.38;16.65;;;;;;;;;;5052023;28;20079;-78
2024/03/10 08:14:30;;;;;;;23.80;14.88;;;;;;;;;;5052396;28;20067;-78
2024/03/10 08:16:57;;;;;;;22.83;13.23;;;;;;;;;;5051645;28;20334;-78
2024/03/10 08:19:23;;;;;;;23.33;15.18;;;;;;;;;;5051253;28;20024;-79
2024/03/10 08:21:49;;;;;;;28.42;16.70;;;;;;;;;;5053210;28;20416;-79
2024/03/10 08:24:16;;;;;;;29.77;18.55;;;;;;;;;;5051953;28;20038;-78
2024/03/10 08:26:43;;;;;;;26.42;17.13;;;;;;;;;;5050812;28;20491;-79
2024/03/10 08:29:09;;;;;;;27.88;19.23;;;;;;;;;;5050703;28;20381;-78
2024/03/10 08:31:35;;;;;;;25.52;16.95;;;;;;;;;;5052447;28;20052;-78
2024/03/10 08:34:01;;;;;;;24.73;16.00;;;;;;;;;;5050802;28;20353;-78
2024/03/10 08:36:27;;;;;;;25.63;17.00;;;;;;;;;;5051916;28;20457;-78
2024/03/10 08:38:54;;;;;;;22.65;15.82;;;;;;;;;;5050534;28;20029;-78
2024/03/10 08:41:20;;;;;;;22.23;13.65;;;;;;;;;;5050566;28;20346;-76
2024/03/10 08:43:47;;;;;;;22.42;15.82;;;;;;;;;;5050517;28;20350;-78
2024/03/10 08:46:13;;;;;;;21.10;13.80;;;;;;;;;;5050345;28;20472;-78
2024/03/10 08:48:40;;;;;;;20.52;13.80;;;;;;;;;;5050533;28;20534;-78
2024/03/10 08:51:06;;;;;;;27.38;16.58;;;;;;;;;;5050144;28;20044;-78
2024/03/10 08:53:33;;;;;;;20.65;12.98;;;;;;;;;;5050525;28;20029;-78
2024/03/10 08:56:00;;;;;;;18.58;10.75;;;;;;;;;;5050599;28;20022;-77
2024/03/10 08:58:27;;;;;;;24.73;15.45;;;;;;;;;;5050339;28;20025;-78
2024/03/10 09:00:55;;;;;;;27.35;17.98;;;;;;;;;;5050628;28;20025;-79
2024/03/10 09:03:22;;;;;;;21.33;14.27;;;;;;;;;;5050474;28;20115;-78
2024/03/10 09:05:48;;;;;;;20.58;14.05;;;;;;;;;;5050801;28;20024;-78
2024/03/10 09:08:14;;;;;;;20.50;13.93;;;;;;;;;;5050361;28;20464;-78
2024/03/10 09:10:41;;;;;;;25.35;17.88;;;;;;;;;;5051682;28;20048;-78
2024/03/10 09:13:07;;;;;;;26.73;18.15;;;;;;;;;;5050145;28;20017;-79
2024/03/10 09:15:34;;;;;;;20.98;14.10;;;;;;;;;;5050145;28;20067;-78
2024/03/10 09:18:00;;;;;;;25.00;17.67;;;;;;;;;;5050254;28;20441;-78
2024/03/10 09:20:27;;;;;;;20.73;13.98;;;;;;;;;;5049967;28;20104;-79
2024/03/10 09:22:54;;;;;;;24.50;17.00;;;;;;;;;;5051547;28;20049;-78
2024/03/10 09:25:21;;;;;;;23.00;15.52;;;;;;;;;;5050023;28;20074;-78
2024/03/10 09:27:53;;;;;;;22.40;15.23;;;;;;;;;;5050051;28;20028;-78
2024/03/10 09:30:25;;;;;;;18.90;13.18;;;;;;;;;;5051973;28;20037;-79
2024/03/10 09:32:54;;;;;;;24.58;17.00;;;;;;;;;;5053746;28;20052;-78
2024/03/10 09:35:34;;;;;;;22.60;13.70;;;;;;;;;;5054794;28;20441;-79
2024/03/10 09:38:06;;;;;;;29.40;20.13;;;;;;;;;;5053829;28;20117;-78
2024/03/10 09:40:32;;;;;;;24.75;17.15;;;;;;;;;;5053824;28;20029;-77
2024/03/10 09:43:02;;;;;;;19.75;13.13;;;;;;;;;;5053688;28;20392;-77
2024/03/10 09:45:28;;;;;;;;;;;;;;;;;;5055174;28;20017;-77
2024/03/10 09:47:55;;;;;;;28.25;17.63;;;;;;;;;;5054209;28;19905;-78
2024/03/10 09:50:25;;;;;;;17.98;12.18;;;;;;;;;;5053601;28;20043;-78
2024/03/10 09:52:54;;;;;;;28.50;19.02;;;;;;;;;;5054676;28;20517;-79
2024/03/10 09:55:20;;;;;;;25.27;17.33;;;;;;;;;;5052885;28;20056;-78
2024/03/10 09:57:56;;;;;;;26.50;18.38;;;;;;;;;;5054903;28;20112;-78
2024/03/10 10:00:27;;;;;;;26.45;17.70;;;;;;;;;;5054391;28;20074;-78
2024/03/10 10:03:01;;;;;;;21.25;13.25;;;;;;;;;;5054704;28;20511;-78
2024/03/10 10:05:32;;;;;;;28.67;18.13;;;;;;;;;;5054169;28;20036;-77
2024/03/10 10:07:59;;;;;;;18.10;12.38;;;;;;;;;;5054089;28;20017;-77
2024/03/10 10:10:26;;;;;;;24.98;18.17;;;;;;;;;;5056548;28;20060;-78
2024/03/10 10:12:53;;;;;;;27.88;21.00;;;;;;;;;;5052956;28;20025;-78
2024/03/10 10:15:26;;;;;;;25.70;18.20;;;;;;;;;;5054120;28;20024;-77
2024/03/10 10:18:01;;;;;;;21.30;15.38;;;;;;;;;;5052906;28;20071;-77
2024/03/10 10:20:28;;;;;;;28.02;20.90;;;;;;;;;;5053770;28;20404;-77
2024/03/10 10:23:00;;;;;;;24.55;18.27;;;;;;;;;;5052641;28;20052;-78
2024/03/10 10:25:27;;;;;;;27.55;20.15;;;;;;;;;;5052521;28;20032;-78
2024/03/10 10:27:57;;;;;;;22.92;16.65;;;;;;;;;;5052744;28;20029;-78
2024/03/10 10:30:23;;;;;;;;;;;;;;;;;;5052824;28;20068;-78
2024/03/10 10:32:50;;;;;;;23.45;17.98;;;;;;;;;;5052777;28;19952;-78
2024/03/10 10:35:16;;;;;;;20.15;13.40;;;;;;;;;;5052372;28;20381;-79
2024/03/10 10:37:46;;;;;;;24.70;17.98;;;;;;;;;;5052560;28;20124;-78
2024/03/10 10:40:12;;;;;;;;;;;;;;;;;;5053337;28;20029;-78
2024/03/10 10:42:39;;;;;;;22.70;16.35;;;;;;;;;;5053585;28;19951;-78
2024/03/10 10:45:10;;;;;;;19.80;14.48;;;;;;;;;;5053980;28;20485;-78
2024/03/10 10:47:37;;;;;;;24.35;17.02;;;;;;;;;;5053719;28;20104;-79
2024/03/10 10:50:10;;;;;;;22.17;16.00;;;;;;;;;;5053332;28;20487;-78
2024/03/10 10:52:39;;;;;;;21.67;15.23;;;;;;;;;;5052096;28;20017;-78
2024/03/10 10:55:05;;;;;;;20.30;15.02;;;;;;;;;;5052454;28;20029;-78
2024/03/10 10:57:32;;;;;;;26.08;18.67;;;;;;;;;;5051971;28;20037;-78
2024/03/10 10:59:59;;;;;;;20.63;14.88;;;;;;;;;;5053671;28;20032;-78
2024/03/10 11:02:27;;;;;;;22.67;16.58;;;;;;;;;;5051727;28;20078;-78
2024/03/10 11:04:53;;;;;;;21.02;15.20;;;;;;;;;;5052394;28;20029;-77
2024/03/10 11:07:21;;;;;;;18.88;14.38;;;;;;;;;;5051932;28;20159;-78
2024/03/10 11:09:47;;;;;;;17.73;13.10;;;;;;;;;;5052070;28;20029;-78
2024/03/10 11:12:23;;;;;;;26.02;20.15;;;;;;;;;;5052990;28;20032;-79
2024/03/10 11:14:53;;;;;;;20.70;14.82;;;;;;;;;;5051954;28;20029;-79
2024/03/10 11:17:20;;;;;;;20.58;14.07;;;;;;;;;;5051697;28;20090;-77
2024/03/10 11:19:50;;;;;;;22.17;16.08;;;;;;;;;;5051865;28;20179;-78
2024/03/10 11:22:23;;;;;;;21.77;16.73;;;;;;;;;;5051489;28;20424;-78
2024/03/10 11:25:08;;;;;;;22.45;17.02;;;;;;;;;;5051775;28;20017;-78
2024/03/10 11:27:47;;;;;;;17.25;11.98;;;;;;;;;;5051437;28;20025;-78
2024/03/10 11:30:32;;;;;;;23.25;16.73;;;;;;;;;;5052597;28;20025;-78
2024/03/10 11:33:04;;;;;;;18.08;12.80;;;;;;;;;;5051242;28;20028;-78
2024/03/10 11:35:31;;;;;;;20.55;15.63;;;;;;;;;;5051164;28;20328;-78
2024/03/10 11:38:01;;;;;;;21.15;14.23;;;;;;;;;;5052594;28;20021;-78
2024/03/10 11:40:30;;;;;;;27.73;21.15;;;;;;;;;;5052255;28;20031;-77
2024/03/10 11:43:00;;;;;;;21.48;13.48;;;;;;;;;;5051314;28;20029;-79
2024/03/10 11:45:27;;;;;;;20.80;15.95;;;;;;;;;;5050973;28;20029;-79
2024/03/10 11:47:56;;;;;;;14.40;10.85;;;;;;;;;;5051189;28;20074;-78
2024/03/10 11:50:23;;;;;;;19.92;13.18;;;;;;;;;;5051001;28;20127;-79
2024/03/10 11:52:49;;;;;;;15.25;11.32;;;;;;;;;;5051222;28;20028;-77
2024/03/10 11:55:21;;;;;;;14.38;10.80;;;;;;;;;;5051503;28;20025;-79
2024/03/10 11:57:54;;;;;;;14.38;10.18;;;;;;;;;;5051990;28;20017;-77
2024/03/10 12:00:24;;;;;;;19.27;14.20;;;;;;;;;;5052610;28;20520;-78
2024/03/10 12:02:51;;;;;;;19.15;13.20;;;;;;;;;;5052628;28;20039;-78
2024/03/10 12:05:17;;;;;;;21.60;14.35;;;;;;;;;;5050715;28;20025;-79
2024/03/10 12:07:57;;;;;;;16.13;11.13;;;;;;;;;;5052457;28;20024;-78
2024/03/10 12:10:32;;;;;;;19.35;14.50;;;;;;;;;;5050569;28;20131;-79
2024/03/10 12:12:58;;;;;;;14.98;10.75;;;;;;;;;;5052021;28;20021;-80
2024/03/10 12:15:26;;;;;;;15.77;11.35;;;;;;;;;;5051797;28;20033;-78
2024/03/10 12:17:53;;;;;;;13.02;9.35;;;;;;;;;;5050851;28;20534;-79
2024/03/10 12:20:20;;;;;;;15.02;10.88;;;;;;;;;;5050398;28;20053;-79
2024/03/10 12:22:47;;;;;;;17.50;12.23;;;;;;;;;;5050412;28;20098;-79
2024/03/10 12:25:13;;;;;;;14.70;9.77;;;;;;;;;;5050298;28;20043;-78
2024/03/10 12:27:40;;;;;;;26.90;20.65;;;;;;;;;;5052010;28;20430;-79
2024/03/10 12:30:13;;;;;;;17.13;12.70;;;;;;;;;;5050352;28;20032;-78
2024/03/10 12:32:52;;;;;;;18.40;12.95;;;;;;;;;;5050395;28;20037;-79
2024/03/10 12:35:22;;;;;;;29.00;22.10;;;;;;;;;;5051378;28;20541;-79
2024/03/10 12:37:48;;;;;;;26.30;20.45;;;;;;;;;;5050200;28;20059;-80
2024/03/10 12:40:17;;;;;;;20.30;15.10;;;;;;;;;;5050003;28;20032;-78
2024/03/10 12:42:43;;;;;;;17.45;13.00;;;;;;;;;;5034423;28;20033;-79
2024/03/10 12:45:11;;;;;;;23.08;16.70;;;;;;;;;;5050173;28;20025;-79
2024/03/10 12:47:37;;;;;;;22.77;15.98;;;;;;;;;;5050469;28;20124;-79
2024/03/10 12:50:07;;;;;;;17.30;12.48;;;;;;;;;;5050262;28;20426;-78
2024/03/10 12:52:34;;;;;;;21.40;16.02;;;;;;;;;;5050060;28;20044;-79
2024/03/10 12:55:00;;;;;;;23.13;15.98;;;;;;;;;;5050268;28;20029;-79
2024/03/10 12:57:26;;;;;;;30.75;23.50;;;;;;;;;;5049919;28;20053;-79
2024/03/10 12:59:52;;;;;;;21.05;15.88;;;;;;;;;;5050467;28;20032;-80
2024/03/10 13:02:18;;;;;;;23.08;17.08;;;;;;;;;;5051642;28;20025;-80
2024/03/10 13:04:44;;;;;;;23.65;18.15;;;;;;;;;;5054384;28;20044;-78
2024/03/10 13:07:10;;;;;;;25.05;19.25;;;;;;;;;;5055672;28;20013;-78
2024/03/10 13:09:36;;;;;;;29.13;22.95;;;;;;;;;;5056096;28;20025;-78
2024/03/10 13:12:04;;;;;;;21.25;16.52;;;;;;;;;;5065776;28;20090;-79
2024/03/10 13:14:32;;;;;;;22.52;16.05;;;;;;;;;;5073838;28;20033;-79
2024/03/10 13:16:58;;;;;;;25.58;18.02;;;;;;;;;;5075120;28;20032;-79
2024/03/10 13:19:24;;;;;;;28.70;21.23;;;;;;;;;;5074783;28;20021;-79
2024/03/10 13:21:50;;;;;;;20.98;15.60;;;;;;;;;;5073458;28;20334;-79
2024/03/10 13:24:18;;;;;;;20.40;14.35;;;;;;;;;;5074696;28;20025;-80
2024/03/10 13:26:44;;;;;;;21.52;16.10;;;;;;;;;;5073800;28;20426;-80
2024/03/10 13:29:12;;;;;;;26.25;19.77;;;;;;;;;;5073406;28;20077;-79
2024/03/10 13:31:38;;;;;;;28.50;20.98;;;;;;;;;;5074946;28;20086;-80
2024/03/10 13:34:05;;;;;;;23.40;16.17;;;;;;;;;;5074030;28;20426;-79
2024/03/10 13:36:31;;;;;;;31.70;23.88;;;;;;;;;;5075237;28;20036;-80
2024/03/10 13:38:58;;;;;;;20.73;15.23;;;;;;;;;;5075115;28;20099;-79
2024/03/10 13:41:24;;;;;;;28.13;19.00;;;;;;;;;;5073694;28;20058;-80
2024/03/10 13:43:50;;;;;;;29.15;20.55;;;;;;;;;;5075193;28;20021;-79
2024/03/10 13:46:16;;;;;;;29.90;22.25;;;;;;;;;;5074951;28;20024;-79
2024/03/10 13:48:42;;;;;;;19.45;14.98;;;;;;;;;;5076580;28;20115;-79
2024/03/10 13:51:08;;;;;;;23.02;18.05;;;;;;;;;;5073591;28;20020;-79
2024/03/10 13:53:34;;;;;;;27.98;20.27;;;;;;;;;;5074652;28;20127;-80
2024/03/10 13:56:01;;;;;;;31.52;24.35;;;;;;;;;;5073446;28;20146;-79
2024/03/10 13:58:28;;;;;;;35.55;27.10;;;;;;;;;;5074870;28;20037;-80
2024/03/10 14:00:54;;;;;;;22.85;16.17;;;;;;;;;;5073520;28;20060;-78
2024/03/10 14:03:20;;;;;;;35.78;24.30;;;;;;;;;;5074608;28;20070;-80
2024/03/10 14:05:46;;;;;;;20.40;14.80;;;;;;;;;;5073801;28;20078;-79
2024/03/10 14:08:12;;;;;;;28.90;22.83;;;;;;;;;;5073951;28;20021;-80
2024/03/10 14:10:39;;;;;;;27.50;21.13;;;;;;;;;;5074701;28;20036;-79
2024/03/10 14:13:05;;;;;;;18.08;13.73;;;;;;;;;;5073316;28;20130;-79
2024/03/10 14:15:37;;;;;;;27.33;20.38;;;;;;;;;;5073117;28;20090;-79
2024/03/10 14:18:03;;;;;;;31.00;23.00;;;;;;;;;;5074020;28;20020;-79
2024/03/10 14:20:31;;;;;;;34.28;25.65;;;;;;;;;;5074140;28;20024;-79
2024/03/10 14:22:57;;;;;;;38.75;29.80;;;;;;;;;;5074371;28;20036;-80
2024/03/10 14:25:23;;;;;;;23.90;18.27;;;;;;;;;;5074085;28;20052;-80
2024/03/10 14:27:50;;;;;;;35.35;25.85;;;;;;;;;;5074415;28;20020;-80
2024/03/10 14:30:18;;;;;;;26.92;20.52;;;;;;;;;;5072474;28;20119;-80
2024/03/10 14:32:44;;;;;;;35.10;24.80;;;;;;;;;;5072700;28;20025;-79
2024/03/10 14:35:13;;;;;;;34.63;26.95;;;;;;;;;;5073753;28;20029;-80
2024/03/10 14:37:49;;;;;;;27.02;19.42;;;;;;;;;;5072436;28;20025;-79
2024/03/10 14:40:15;;;;;;;32.17;21.52;;;;;;;;;;5072179;28;20024;-79
2024/03/10 14:42:49;;;;;;;40.03;28.98;;;;;;;;;;5072603;28;20502;-79
2024/03/10 14:45:15;;;;;;;29.13;21.73;;;;;;;;;;5073622;28;20371;-80